Holst, Minnesota
Current Conditions -  °F | °C
As of 8:35 PM on Tuesday 21 Oct 2014 (Local Time) from KFSE Reporting Station
Clear Clear  
Wind Chill: 52°   Ceiling: Unl
Heat Index: 52°   Visibility: 10mi
Dew Point: 37°   Wind: 16mph
Humidity: 58%   Direction: 150°SSE
Pressure: 29.97"   Gusts: 23mph
Location:  47.6306°N, 95.3701°W
Report Text: KFSE 220135Z AUTO 15014G20KT 10SM CLR 11/03 A2997 RMK AO2
Loading
Personal Weather Stations






























Interactive Weather Map
Tropical Storm Tracking
New forecast layout! Learn more

10-Day Weather Forecast

Advertisements
Track Severe Weather on mobile